sensor_id;sensor_type;location;lat;lon;timestamp;temperature;humidity
63013;DHT22;62113;45.624;11.700;2022-10-15T00:00:36;17.60;68.10
63013;DHT22;62113;45.624;11.700;2022-10-15T00:03:02;17.50;68.10
63013;DHT22;62113;45.624;11.700;2022-10-15T00:05:27;17.60;68.10
63013;DHT22;62113;45.624;11.700;2022-10-15T00:07:53;17.60;67.80
63013;DHT22;62113;45.624;11.700;2022-10-15T00:10:19;17.70;67.80
63013;DHT22;62113;45.624;11.700;2022-10-15T00:12:45;17.70;67.70
63013;DHT22;62113;45.624;11.700;2022-10-15T00:15:11;17.70;67.70
63013;DHT22;62113;45.624;11.700;2022-10-15T00:17:37;17.70;67.70
63013;DHT22;62113;45.624;11.700;2022-10-15T00:20:05;17.70;67.80
63013;DHT22;62113;45.624;11.700;2022-10-15T00:22:31;17.60;67.90
63013;DHT22;62113;45.624;11.700;2022-10-15T00:24:56;17.60;68.10
63013;DHT22;62113;45.624;11.700;2022-10-15T00:27:22;17.50;68.10
63013;DHT22;62113;45.624;11.700;2022-10-15T00:29:48;17.50;68.30
63013;DHT22;62113;45.624;11.700;2022-10-15T00:32:13;17.50;68.30
63013;DHT22;62113;45.624;11.700;2022-10-15T00:34:39;17.50;68.20
63013;DHT22;62113;45.624;11.700;2022-10-15T00:37:05;17.60;68.40
63013;DHT22;62113;45.624;11.700;2022-10-15T00:39:31;17.60;68.30
63013;DHT22;62113;45.624;11.700;2022-10-15T00:41:56;17.70;68.20
63013;DHT22;62113;45.624;11.700;2022-10-15T00:47:34;17.60;68.10
63013;DHT22;62113;45.624;11.700;2022-10-15T00:53:04;17.60;68.00
63013;DHT22;62113;45.624;11.700;2022-10-15T00:55:31;17.70;67.70
63013;DHT22;62113;45.624;11.700;2022-10-15T00:58:01;17.70;67.70
63013;DHT22;62113;45.624;11.700;2022-10-15T01:00:27;17.70;67.90
63013;DHT22;62113;45.624;11.700;2022-10-15T01:02:53;17.70;68.10
63013;DHT22;62113;45.624;11.700;2022-10-15T01:05:19;17.70;68.20
63013;DHT22;62113;45.624;11.700;2022-10-15T01:07:45;17.60;68.30
63013;DHT22;62113;45.624;11.700;2022-10-15T01:10:11;17.60;68.40
63013;DHT22;62113;45.624;11.700;2022-10-15T01:15:59;17.50;68.20
63013;DHT22;62113;45.624;11.700;2022-10-15T01:18:34;17.40;68.80
63013;DHT22;62113;45.624;11.700;2022-10-15T01:21:10;17.40;68.70
63013;DHT22;62113;45.624;11.700;2022-10-15T01:32:02;17.30;69.20
63013;DHT22;62113;45.624;11.700;2022-10-15T01:37:23;17.40;69.20
63013;DHT22;62113;45.624;11.700;2022-10-15T01:39:58;17.40;69.30
63013;DHT22;62113;45.624;11.700;2022-10-15T01:42:33;17.40;69.20
63013;DHT22;62113;45.624;11.700;2022-10-15T01:45:06;17.40;69.20
63013;DHT22;62113;45.624;11.700;2022-10-15T01:47:44;17.50;69.10
63013;DHT22;62113;45.624;11.700;2022-10-15T01:50:12;17.40;68.90
63013;DHT22;62113;45.624;11.700;2022-10-15T01:52:39;17.40;69.10
63013;DHT22;62113;45.624;11.700;2022-10-15T01:55:08;17.40;68.80
63013;DHT22;62113;45.624;11.700;2022-10-15T01:57:36;17.40;69.00
63013;DHT22;62113;45.624;11.700;2022-10-15T02:00:04;17.40;69.00
63013;DHT22;62113;45.624;11.700;2022-10-15T02:02:29;17.40;69.30
63013;DHT22;62113;45.624;11.700;2022-10-15T02:04:55;17.30;69.50
63013;DHT22;62113;45.624;11.700;2022-10-15T02:07:31;17.30;69.50
63013;DHT22;62113;45.624;11.700;2022-10-15T02:13:08;17.30;69.60
63013;DHT22;62113;45.624;11.700;2022-10-15T02:18:29;17.30;69.70
63013;DHT22;62113;45.624;11.700;2022-10-15T02:21:06;17.30;69.70
63013;DHT22;62113;45.624;11.700;2022-10-15T02:23:37;17.40;69.80
63013;DHT22;62113;45.624;11.700;2022-10-15T02:26:07;17.40;69.70
63013;DHT22;62113;45.624;11.700;2022-10-15T02:28:34;17.30;69.80
63013;DHT22;62113;45.624;11.700;2022-10-15T02:31:02;17.30;70.10
63013;DHT22;62113;45.624;11.700;2022-10-15T02:33:29;17.40;69.90
63013;DHT22;62113;45.624;11.700;2022-10-15T02:35:57;17.40;69.80
63013;DHT22;62113;45.624;11.700;2022-10-15T02:38:23;17.40;69.70
63013;DHT22;62113;45.624;11.700;2022-10-15T02:40:49;17.30;70.30
63013;DHT22;62113;45.624;11.700;2022-10-15T02:43:18;17.30;70.00
63013;DHT22;62113;45.624;11.700;2022-10-15T02:45:44;17.40;70.10
63013;DHT22;62113;45.624;11.700;2022-10-15T02:48:10;17.30;70.10
63013;DHT22;62113;45.624;11.700;2022-10-15T02:50:35;17.30;70.10
63013;DHT22;62113;45.624;11.700;2022-10-15T02:53:01;17.30;70.10
63013;DHT22;62113;45.624;11.700;2022-10-15T02:55:27;17.30;70.10
63013;DHT22;62113;45.624;11.700;2022-10-15T02:57:52;17.30;69.90
63013;DHT22;62113;45.624;11.700;2022-10-15T03:00:18;17.30;70.10
63013;DHT22;62113;45.624;11.700;2022-10-15T03:02:44;17.30;70.10
63013;DHT22;62113;45.624;11.700;2022-10-15T03:05:10;17.30;70.20
63013;DHT22;62113;45.624;11.700;2022-10-15T03:07:35;17.30;70.30
63013;DHT22;62113;45.624;11.700;2022-10-15T03:10:01;17.30;70.10
63013;DHT22;62113;45.624;11.700;2022-10-15T03:12:27;17.40;70.20
63013;DHT22;62113;45.624;11.700;2022-10-15T03:14:53;17.40;70.20
63013;DHT22;62113;45.624;11.700;2022-10-15T03:17:18;17.40;70.10
63013;DHT22;62113;45.624;11.700;2022-10-15T03:19:44;17.40;70.10
63013;DHT22;62113;45.624;11.700;2022-10-15T03:22:10;17.40;70.20
63013;DHT22;62113;45.624;11.700;2022-10-15T03:24:35;17.40;70.10
63013;DHT22;62113;45.624;11.700;2022-10-15T03:27:01;17.40;70.00
63013;DHT22;62113;45.624;11.700;2022-10-15T03:29:27;17.40;70.10
63013;DHT22;62113;45.624;11.700;2022-10-15T03:31:52;17.40;70.00
63013;DHT22;62113;45.624;11.700;2022-10-15T03:34:18;17.40;70.00
63013;DHT22;62113;45.624;11.700;2022-10-15T03:36:44;17.40;70.10
63013;DHT22;62113;45.624;11.700;2022-10-15T03:39:12;17.30;70.20
63013;DHT22;62113;45.624;11.700;2022-10-15T03:41:38;17.30;70.20
63013;DHT22;62113;45.624;11.700;2022-10-15T03:44:05;17.30;70.10
63013;DHT22;62113;45.624;11.700;2022-10-15T03:46:31;17.30;70.20
63013;DHT22;62113;45.624;11.700;2022-10-15T03:48:57;17.40;70.10
63013;DHT22;62113;45.624;11.700;2022-10-15T03:51:23;17.40;70.00
63013;DHT22;62113;45.624;11.700;2022-10-15T03:53:49;17.40;70.10
63013;DHT22;62113;45.624;11.700;2022-10-15T03:56:14;17.40;70.10
63013;DHT22;62113;45.624;11.700;2022-10-15T03:58:41;17.40;70.10
63013;DHT22;62113;45.624;11.700;2022-10-15T04:01:10;17.40;70.10
63013;DHT22;62113;45.624;11.700;2022-10-15T04:03:36;17.40;70.00
63013;DHT22;62113;45.624;11.700;2022-10-15T04:06:02;17.40;69.90
63013;DHT22;62113;45.624;11.700;2022-10-15T04:08:28;17.30;70.00
63013;DHT22;62113;45.624;11.700;2022-10-15T04:10:54;17.40;70.00
63013;DHT22;62113;45.624;11.700;2022-10-15T04:13:19;17.40;70.10
63013;DHT22;62113;45.624;11.700;2022-10-15T04:15:45;17.40;70.20
63013;DHT22;62113;45.624;11.700;2022-10-15T04:18:10;17.40;70.10
63013;DHT22;62113;45.624;11.700;2022-10-15T04:20:36;17.40;69.90
63013;DHT22;62113;45.624;11.700;2022-10-15T04:23:02;17.40;69.90
63013;DHT22;62113;45.624;11.700;2022-10-15T04:25:28;17.40;70.00
63013;DHT22;62113;45.624;11.700;2022-10-15T04:27:54;17.40;70.00
63013;DHT22;62113;45.624;11.700;2022-10-15T04:30:19;17.30;70.10
63013;DHT22;62113;45.624;11.700;2022-10-15T04:32:45;17.40;70.10
63013;DHT22;62113;45.624;11.700;2022-10-15T04:35:11;17.40;70.00
63013;DHT22;62113;45.624;11.700;2022-10-15T04:37:36;17.40;70.00
63013;DHT22;62113;45.624;11.700;2022-10-15T04:40:03;17.40;70.00
63013;DHT22;62113;45.624;11.700;2022-10-15T04:42:29;17.40;70.10
63013;DHT22;62113;45.624;11.700;2022-10-15T04:44:55;17.30;70.10
63013;DHT22;62113;45.624;11.700;2022-10-15T04:47:21;17.30;70.20
63013;DHT22;62113;45.624;11.700;2022-10-15T04:49:46;17.30;70.30
63013;DHT22;62113;45.624;11.700;2022-10-15T04:52:12;17.30;70.50
63013;DHT22;62113;45.624;11.700;2022-10-15T04:54:38;17.30;70.30
63013;DHT22;62113;45.624;11.700;2022-10-15T04:57:04;17.30;70.40
63013;DHT22;62113;45.624;11.700;2022-10-15T04:59:30;17.30;70.30
63013;DHT22;62113;45.624;11.700;2022-10-15T05:01:55;17.30;70.20
63013;DHT22;62113;45.624;11.700;2022-10-15T05:04:21;17.30;70.20
63013;DHT22;62113;45.624;11.700;2022-10-15T05:06:47;17.30;70.20
63013;DHT22;62113;45.624;11.700;2022-10-15T05:09:12;17.30;70.20
63013;DHT22;62113;45.624;11.700;2022-10-15T05:11:38;17.30;70.20
63013;DHT22;62113;45.624;11.700;2022-10-15T05:14:04;17.30;70.20
63013;DHT22;62113;45.624;11.700;2022-10-15T05:16:30;17.30;70.20
63013;DHT22;62113;45.624;11.700;2022-10-15T05:18:58;17.30;70.20
63013;DHT22;62113;45.624;11.700;2022-10-15T05:21:24;17.30;70.30
63013;DHT22;62113;45.624;11.700;2022-10-15T05:23:50;17.30;70.30
63013;DHT22;62113;45.624;11.700;2022-10-15T05:26:18;17.20;70.30
63013;DHT22;62113;45.624;11.700;2022-10-15T05:28:44;17.20;70.40
63013;DHT22;62113;45.624;11.700;2022-10-15T05:31:12;17.20;70.60
63013;DHT22;62113;45.624;11.700;2022-10-15T05:33:39;17.20;70.60
63013;DHT22;62113;45.624;11.700;2022-10-15T05:36:13;17.20;70.60
63013;DHT22;62113;45.624;11.700;2022-10-15T05:38:42;17.20;70.60
63013;DHT22;62113;45.624;11.700;2022-10-15T05:41:08;17.20;70.50
63013;DHT22;62113;45.624;11.700;2022-10-15T05:43:33;17.20;70.30
63013;DHT22;62113;45.624;11.700;2022-10-15T05:45:59;17.20;70.50
63013;DHT22;62113;45.624;11.700;2022-10-15T05:48:25;17.10;70.50
63013;DHT22;62113;45.624;11.700;2022-10-15T05:50:51;17.10;70.30
63013;DHT22;62113;45.624;11.700;2022-10-15T05:53:17;17.10;70.60
63013;DHT22;62113;45.624;11.700;2022-10-15T05:55:42;17.00;70.60
63013;DHT22;62113;45.624;11.700;2022-10-15T05:58:08;17.00;70.60
63013;DHT22;62113;45.624;11.700;2022-10-15T06:00:34;17.00;70.90
63013;DHT22;62113;45.624;11.700;2022-10-15T06:03:00;17.00;71.10
63013;DHT22;62113;45.624;11.700;2022-10-15T06:05:26;16.90;71.30
63013;DHT22;62113;45.624;11.700;2022-10-15T06:07:51;16.90;71.40
63013;DHT22;62113;45.624;11.700;2022-10-15T06:10:17;17.00;71.60
63013;DHT22;62113;45.624;11.700;2022-10-15T06:12:48;17.00;71.50
63013;DHT22;62113;45.624;11.700;2022-10-15T06:15:13;17.00;71.50
63013;DHT22;62113;45.624;11.700;2022-10-15T06:17:39;17.00;71.40
63013;DHT22;62113;45.624;11.700;2022-10-15T06:20:05;17.00;71.60
63013;DHT22;62113;45.624;11.700;2022-10-15T06:22:31;17.10;71.70
63013;DHT22;62113;45.624;11.700;2022-10-15T06:24:56;17.10;71.80
63013;DHT22;62113;45.624;11.700;2022-10-15T06:27:22;17.10;71.80
63013;DHT22;62113;45.624;11.700;2022-10-15T06:29:47;17.10;71.80
63013;DHT22;62113;45.624;11.700;2022-10-15T06:32:13;17.20;71.80
63013;DHT22;62113;45.624;11.700;2022-10-15T06:34:38;17.20;71.80
63013;DHT22;62113;45.624;11.700;2022-10-15T06:37:04;17.20;71.60
63013;DHT22;62113;45.624;11.700;2022-10-15T06:39:30;17.30;71.30
63013;DHT22;62113;45.624;11.700;2022-10-15T06:41:56;17.20;71.40
63013;DHT22;62113;45.624;11.700;2022-10-15T06:44:21;17.30;71.60
63013;DHT22;62113;45.624;11.700;2022-10-15T06:46:47;17.30;71.80
63013;DHT22;62113;45.624;11.700;2022-10-15T06:49:13;17.30;72.00
63013;DHT22;62113;45.624;11.700;2022-10-15T06:51:38;17.30;71.90
63013;DHT22;62113;45.624;11.700;2022-10-15T06:54:04;17.40;71.20
63013;DHT22;62113;45.624;11.700;2022-10-15T06:56:29;17.40;70.90
63013;DHT22;62113;45.624;11.700;2022-10-15T06:58:55;17.50;71.60
63013;DHT22;62113;45.624;11.700;2022-10-15T07:01:21;17.50;71.50
63013;DHT22;62113;45.624;11.700;2022-10-15T07:03:50;17.50;71.60
63013;DHT22;62113;45.624;11.700;2022-10-15T07:06:16;17.60;71.70
63013;DHT22;62113;45.624;11.700;2022-10-15T07:08:42;17.60;71.50
63013;DHT22;62113;45.624;11.700;2022-10-15T07:11:09;17.70;71.90
63013;DHT22;62113;45.624;11.700;2022-10-15T07:13:35;17.70;71.80
63013;DHT22;62113;45.624;11.700;2022-10-15T07:16:05;17.80;71.80
63013;DHT22;62113;45.624;11.700;2022-10-15T07:18:32;17.80;71.50
63013;DHT22;62113;45.624;11.700;2022-10-15T07:20:58;17.90;71.50
63013;DHT22;62113;45.624;11.700;2022-10-15T07:23:23;18.00;71.20
63013;DHT22;62113;45.624;11.700;2022-10-15T07:25:49;18.00;71.10
63013;DHT22;62113;45.624;11.700;2022-10-15T07:28:15;18.10;71.00
63013;DHT22;62113;45.624;11.700;2022-10-15T07:30:40;18.20;70.60
63013;DHT22;62113;45.624;11.700;2022-10-15T07:33:06;18.20;70.60
63013;DHT22;62113;45.624;11.700;2022-10-15T07:35:31;18.30;70.70
63013;DHT22;62113;45.624;11.700;2022-10-15T07:38:01;18.40;70.40
63013;DHT22;62113;45.624;11.700;2022-10-15T07:40:26;18.40;70.60
63013;DHT22;62113;45.624;11.700;2022-10-15T07:42:54;18.50;70.50
63013;DHT22;62113;45.624;11.700;2022-10-15T07:45:20;18.60;70.00
63013;DHT22;62113;45.624;11.700;2022-10-15T07:47:45;18.60;69.60
63013;DHT22;62113;45.624;11.700;2022-10-15T07:50:11;18.70;69.30
63013;DHT22;62113;45.624;11.700;2022-10-15T07:52:36;18.80;69.10
63013;DHT22;62113;45.624;11.700;2022-10-15T07:55:02;18.90;69.00
63013;DHT22;62113;45.624;11.700;2022-10-15T07:57:28;19.00;68.70
63013;DHT22;62113;45.624;11.700;2022-10-15T07:59:54;19.10;68.40
63013;DHT22;62113;45.624;11.700;2022-10-15T08:02:19;19.20;67.80
63013;DHT22;62113;45.624;11.700;2022-10-15T08:04:45;19.30;67.60
63013;DHT22;62113;45.624;11.700;2022-10-15T08:07:11;19.40;67.20
63013;DHT22;62113;45.624;11.700;2022-10-15T08:09:37;19.60;66.60
63013;DHT22;62113;45.624;11.700;2022-10-15T08:12:03;19.70;65.50
63013;DHT22;62113;45.624;11.700;2022-10-15T08:14:29;19.80;65.40
63013;DHT22;62113;45.624;11.700;2022-10-15T08:16:54;20.00;64.80
63013;DHT22;62113;45.624;11.700;2022-10-15T08:19:20;20.10;63.90
63013;DHT22;62113;45.624;11.700;2022-10-15T08:21:45;20.20;64.00
63013;DHT22;62113;45.624;11.700;2022-10-15T08:24:11;20.30;63.80
63013;DHT22;62113;45.624;11.700;2022-10-15T08:26:37;20.30;63.40
63013;DHT22;62113;45.624;11.700;2022-10-15T08:29:03;20.30;63.30
63013;DHT22;62113;45.624;11.700;2022-10-15T08:31:28;20.40;63.10
63013;DHT22;62113;45.624;11.700;2022-10-15T08:33:58;20.40;63.20
63013;DHT22;62113;45.624;11.700;2022-10-15T08:36:24;20.40;63.10
63013;DHT22;62113;45.624;11.700;2022-10-15T08:38:50;20.40;62.90
63013;DHT22;62113;45.624;11.700;2022-10-15T08:41:35;20.40;62.80
63013;DHT22;62113;45.624;11.700;2022-10-15T08:44:03;20.40;62.60
63013;DHT22;62113;45.624;11.700;2022-10-15T08:46:42;20.50;62.00
63013;DHT22;62113;45.624;11.700;2022-10-15T08:49:33;20.50;61.60
63013;DHT22;62113;45.624;11.700;2022-10-15T08:52:11;20.60;60.90
63013;DHT22;62113;45.624;11.700;2022-10-15T08:54:41;20.60;60.90
63013;DHT22;62113;45.624;11.700;2022-10-15T08:57:43;20.70;60.80
63013;DHT22;62113;45.624;11.700;2022-10-15T09:00:18;20.70;60.10
63013;DHT22;62113;45.624;11.700;2022-10-15T09:05:37;20.80;58.30
63013;DHT22;62113;45.624;11.700;2022-10-15T09:11:01;21.00;57.90
63013;DHT22;62113;45.624;11.700;2022-10-15T09:13:36;21.20;57.60
63013;DHT22;62113;45.624;11.700;2022-10-15T09:16:21;21.40;56.90
63013;DHT22;62113;45.624;11.700;2022-10-15T09:18:51;21.70;56.80
63013;DHT22;62113;45.624;11.700;2022-10-15T09:21:18;21.90;55.70
63013;DHT22;62113;45.624;11.700;2022-10-15T09:23:44;22.20;54.80
63013;DHT22;62113;45.624;11.700;2022-10-15T09:29:30;22.60;54.70
63013;DHT22;62113;45.624;11.700;2022-10-15T09:34:51;23.10;53.60
63013;DHT22;62113;45.624;11.700;2022-10-15T09:37:42;23.20;50.50
63013;DHT22;62113;45.624;11.700;2022-10-15T09:43:09;23.30;50.30
63013;DHT22;62113;45.624;11.700;2022-10-15T09:45:35;23.40;50.50
63013;DHT22;62113;45.624;11.700;2022-10-15T09:48:14;23.50;50.20
63013;DHT22;62113;45.624;11.700;2022-10-15T09:50:54;23.60;50.50
63013;DHT22;62113;45.624;11.700;2022-10-15T09:56:17;23.70;49.60
63013;DHT22;62113;45.624;11.700;2022-10-15T09:58:51;23.70;49.80
63013;DHT22;62113;45.624;11.700;2022-10-15T10:01:25;23.80;50.20
63013;DHT22;62113;45.624;11.700;2022-10-15T10:04:17;23.80;50.30
63013;DHT22;62113;45.624;11.700;2022-10-15T10:06:52;23.80;50.00
63013;DHT22;62113;45.624;11.700;2022-10-15T10:11:54;23.90;50.20
63013;DHT22;62113;45.624;11.700;2022-10-15T10:14:29;23.90;50.10
63013;DHT22;62113;45.624;11.700;2022-10-15T10:17:12;24.00;49.10
63013;DHT22;62113;45.624;11.700;2022-10-15T10:19:39;24.00;48.90
63013;DHT22;62113;45.624;11.700;2022-10-15T10:22:19;24.10;48.50
63013;DHT22;62113;45.624;11.700;2022-10-15T10:24:46;24.10;48.90
63013;DHT22;62113;45.624;11.700;2022-10-15T10:29:57;24.30;49.30
63013;DHT22;62113;45.624;11.700;2022-10-15T10:32:29;24.20;47.90
63013;DHT22;62113;45.624;11.700;2022-10-15T10:34:56;24.20;48.00
63013;DHT22;62113;45.624;11.700;2022-10-15T10:37:22;24.10;48.60
63013;DHT22;62113;45.624;11.700;2022-10-15T10:39:56;24.10;48.30
63013;DHT22;62113;45.624;11.700;2022-10-15T10:42:26;24.10;48.50
63013;DHT22;62113;45.624;11.700;2022-10-15T10:44:53;24.20;48.50
63013;DHT22;62113;45.624;11.700;2022-10-15T10:47:25;24.20;48.20
63013;DHT22;62113;45.624;11.700;2022-10-15T10:49:57;24.20;48.40
63013;DHT22;62113;45.624;11.700;2022-10-15T10:52:31;24.20;48.30
63013;DHT22;62113;45.624;11.700;2022-10-15T10:55:05;24.40;48.50
63013;DHT22;62113;45.624;11.700;2022-10-15T11:00:06;24.60;48.50
63013;DHT22;62113;45.624;11.700;2022-10-15T11:02:32;24.70;48.30
63013;DHT22;62113;45.624;11.700;2022-10-15T11:05:00;24.70;48.20
63013;DHT22;62113;45.624;11.700;2022-10-15T11:16:04;24.60;49.50
63013;DHT22;62113;45.624;11.700;2022-10-15T11:18:59;24.40;49.90
63013;DHT22;62113;45.624;11.700;2022-10-15T11:24:25;24.40;49.90
63013;DHT22;62113;45.624;11.700;2022-10-15T11:29:50;24.50;49.70
63013;DHT22;62113;45.624;11.700;2022-10-15T11:38:02;24.60;49.70
63013;DHT22;62113;45.624;11.700;2022-10-15T11:40:59;24.60;49.70
63013;DHT22;62113;45.624;11.700;2022-10-15T11:49:03;24.80;50.30
63013;DHT22;62113;45.624;11.700;2022-10-15T11:54:30;24.80;49.60
63013;DHT22;62113;45.624;11.700;2022-10-15T11:57:00;24.80;49.40
63013;DHT22;62113;45.624;11.700;2022-10-15T11:59:37;24.80;49.80
63013;DHT22;62113;45.624;11.700;2022-10-15T12:02:44;24.70;49.80
63013;DHT22;62113;45.624;11.700;2022-10-15T12:05:11;24.70;50.10
63013;DHT22;62113;45.624;11.700;2022-10-15T12:07:44;24.70;49.80
63013;DHT22;62113;45.624;11.700;2022-10-15T12:15:23;24.40;50.10
63013;DHT22;62113;45.624;11.700;2022-10-15T12:20:29;24.20;50.50
63013;DHT22;62113;45.624;11.700;2022-10-15T12:22:58;24.20;50.80
63013;DHT22;62113;45.624;11.700;2022-10-15T12:30:34;24.20;51.30
63013;DHT22;62113;45.624;11.700;2022-10-15T12:33:03;24.20;51.50
63013;DHT22;62113;45.624;11.700;2022-10-15T12:35:36;24.20;51.60
63013;DHT22;62113;45.624;11.700;2022-10-15T12:38:22;24.20;51.70
63013;DHT22;62113;45.624;11.700;2022-10-15T12:41:08;24.20;51.60
63013;DHT22;62113;45.624;11.700;2022-10-15T12:43:43;24.10;51.60
63013;DHT22;62113;45.624;11.700;2022-10-15T12:46:10;24.10;51.70
63013;DHT22;62113;45.624;11.700;2022-10-15T12:48:43;24.10;51.90
63013;DHT22;62113;45.624;11.700;2022-10-15T12:53:41;24.10;52.00
63013;DHT22;62113;45.624;11.700;2022-10-15T13:09:04;24.10;52.60
63013;DHT22;62113;45.624;11.700;2022-10-15T13:11:44;24.10;52.30
63013;DHT22;62113;45.624;11.700;2022-10-15T13:14:16;24.10;52.40
63013;DHT22;62113;45.624;11.700;2022-10-15T13:16:43;24.20;52.40
63013;DHT22;62113;45.624;11.700;2022-10-15T13:19:53;24.10;52.40
63013;DHT22;62113;45.624;11.700;2022-10-15T13:22:41;24.10;52.50
63013;DHT22;62113;45.624;11.700;2022-10-15T13:25:16;24.10;52.50
63013;DHT22;62113;45.624;11.700;2022-10-15T13:27:42;24.00;52.70
63013;DHT22;62113;45.624;11.700;2022-10-15T13:32:46;24.00;52.80
63013;DHT22;62113;45.624;11.700;2022-10-15T13:35:16;23.90;52.80
63013;DHT22;62113;45.624;11.700;2022-10-15T13:37:42;23.90;52.80
63013;DHT22;62113;45.624;11.700;2022-10-15T13:40:20;23.90;52.90
63013;DHT22;62113;45.624;11.700;2022-10-15T13:43:03;23.80;53.10
63013;DHT22;62113;45.624;11.700;2022-10-15T13:45:29;23.80;53.20
63013;DHT22;62113;45.624;11.700;2022-10-15T13:47:55;23.80;53.30
63013;DHT22;62113;45.624;11.700;2022-10-15T13:50:26;23.70;53.40
63013;DHT22;62113;45.624;11.700;2022-10-15T13:53:12;23.70;53.50
63013;DHT22;62113;45.624;11.700;2022-10-15T13:55:44;23.70;53.70
63013;DHT22;62113;45.624;11.700;2022-10-15T14:03:25;23.80;53.90
63013;DHT22;62113;45.624;11.700;2022-10-15T14:05:52;23.70;53.80
63013;DHT22;62113;45.624;11.700;2022-10-15T14:08:22;23.70;53.80
63013;DHT22;62113;45.624;11.700;2022-10-15T14:10:50;23.70;53.80
63013;DHT22;62113;45.624;11.700;2022-10-15T14:13:16;23.70;53.70
63013;DHT22;62113;45.624;11.700;2022-10-15T14:18:33;23.70;53.40
63013;DHT22;62113;45.624;11.700;2022-10-15T14:21:00;23.70;53.50
63013;DHT22;62113;45.624;11.700;2022-10-15T14:23:26;23.70;53.50
63013;DHT22;62113;45.624;11.700;2022-10-15T14:26:00;23.70;53.50
63013;DHT22;62113;45.624;11.700;2022-10-15T14:28:29;23.70;53.60
63013;DHT22;62113;45.624;11.700;2022-10-15T14:30:56;23.60;53.60
63013;DHT22;62113;45.624;11.700;2022-10-15T14:38:38;23.60;53.70
63013;DHT22;62113;45.624;11.700;2022-10-15T14:43:42;23.50;53.90
63013;DHT22;62113;45.624;11.700;2022-10-15T14:46:14;23.40;54.00
63013;DHT22;62113;45.624;11.700;2022-10-15T14:48:42;23.40;54.10
63013;DHT22;62113;45.624;11.700;2022-10-15T14:51:16;23.40;54.30
63013;DHT22;62113;45.624;11.700;2022-10-15T14:53:44;23.30;54.40
63013;DHT22;62113;45.624;11.700;2022-10-15T14:56:20;23.30;54.50
63013;DHT22;62113;45.624;11.700;2022-10-15T14:58:55;23.30;54.60
63013;DHT22;62113;45.624;11.700;2022-10-15T15:01:22;23.30;54.80
63013;DHT22;62113;45.624;11.700;2022-10-15T15:03:52;23.30;54.90
63013;DHT22;62113;45.624;11.700;2022-10-15T15:06:18;23.20;55.10
63013;DHT22;62113;45.624;11.700;2022-10-15T15:08:44;23.20;55.20
63013;DHT22;62113;45.624;11.700;2022-10-15T15:11:13;23.20;55.40
63013;DHT22;62113;45.624;11.700;2022-10-15T15:13:42;23.20;55.40
63013;DHT22;62113;45.624;11.700;2022-10-15T15:16:11;23.10;55.50
63013;DHT22;62113;45.624;11.700;2022-10-15T15:18:37;23.10;55.50
63013;DHT22;62113;45.624;11.700;2022-10-15T15:21:05;23.10;55.60
63013;DHT22;62113;45.624;11.700;2022-10-15T15:23:32;23.00;55.70
63013;DHT22;62113;45.624;11.700;2022-10-15T15:25:58;23.00;55.80
63013;DHT22;62113;45.624;11.700;2022-10-15T15:28:25;23.00;56.00
63013;DHT22;62113;45.624;11.700;2022-10-15T15:31:03;23.00;56.20
63013;DHT22;62113;45.624;11.700;2022-10-15T15:33:31;22.90;56.50
63013;DHT22;62113;45.624;11.700;2022-10-15T15:36:10;22.90;56.80
63013;DHT22;62113;45.624;11.700;2022-10-15T15:38:36;22.80;57.00
63013;DHT22;62113;45.624;11.700;2022-10-15T15:41:03;22.80;57.10
63013;DHT22;62113;45.624;11.700;2022-10-15T15:43:29;22.70;57.20
63013;DHT22;62113;45.624;11.700;2022-10-15T15:45:55;22.70;57.30
63013;DHT22;62113;45.624;11.700;2022-10-15T15:48:21;22.70;57.50
63013;DHT22;62113;45.624;11.700;2022-10-15T15:50:46;22.70;57.60
63013;DHT22;62113;45.624;11.700;2022-10-15T15:53:12;22.60;57.60
63013;DHT22;62113;45.624;11.700;2022-10-15T15:55:38;22.60;58.20
63013;DHT22;62113;45.624;11.700;2022-10-15T15:58:03;22.50;58.50
63013;DHT22;62113;45.624;11.700;2022-10-15T16:00:29;22.50;58.90
63013;DHT22;62113;45.624;11.700;2022-10-15T16:02:55;22.50;58.80
63013;DHT22;62113;45.624;11.700;2022-10-15T16:05:20;22.40;58.90
63013;DHT22;62113;45.624;11.700;2022-10-15T16:07:48;22.40;59.00
63013;DHT22;62113;45.624;11.700;2022-10-15T16:10:14;22.40;59.10
63013;DHT22;62113;45.624;11.700;2022-10-15T16:12:41;22.40;59.30
63013;DHT22;62113;45.624;11.700;2022-10-15T16:15:08;22.40;59.50
63013;DHT22;62113;45.624;11.700;2022-10-15T16:17:34;22.40;59.70
63013;DHT22;62113;45.624;11.700;2022-10-15T16:19:59;22.30;60.00
63013;DHT22;62113;45.624;11.700;2022-10-15T16:22:25;22.30;60.20
63013;DHT22;62113;45.624;11.700;2022-10-15T16:24:51;22.30;60.20
63013;DHT22;62113;45.624;11.700;2022-10-15T16:27:16;22.20;59.90
63013;DHT22;62113;45.624;11.700;2022-10-15T16:29:42;22.30;60.00
63013;DHT22;62113;45.624;11.700;2022-10-15T16:32:08;22.20;60.20
63013;DHT22;62113;45.624;11.700;2022-10-15T16:34:33;22.20;60.40
63013;DHT22;62113;45.624;11.700;2022-10-15T16:36:59;22.20;60.50
63013;DHT22;62113;45.624;11.700;2022-10-15T16:39:24;22.20;60.50
63013;DHT22;62113;45.624;11.700;2022-10-15T16:41:50;22.20;60.70
63013;DHT22;62113;45.624;11.700;2022-10-15T16:44:15;22.20;60.60
63013;DHT22;62113;45.624;11.700;2022-10-15T16:46:41;22.20;60.50
63013;DHT22;62113;45.624;11.700;2022-10-15T16:49:07;22.20;60.40
63013;DHT22;62113;45.624;11.700;2022-10-15T16:51:33;22.10;60.30
63013;DHT22;62113;45.624;11.700;2022-10-15T16:53:59;22.10;60.20
63013;DHT22;62113;45.624;11.700;2022-10-15T16:56:27;22.00;60.30
63013;DHT22;62113;45.624;11.700;2022-10-15T16:58:54;22.00;60.10
63013;DHT22;62113;45.624;11.700;2022-10-15T17:01:23;22.00;60.20
63013;DHT22;62113;45.624;11.700;2022-10-15T17:03:49;21.90;60.20
63013;DHT22;62113;45.624;11.700;2022-10-15T17:06:21;21.90;60.40
63013;DHT22;62113;45.624;11.700;2022-10-15T17:08:55;21.80;60.50
63013;DHT22;62113;45.624;11.700;2022-10-15T17:11:30;21.70;60.70
63013;DHT22;62113;45.624;11.700;2022-10-15T17:13:58;21.70;61.00
63013;DHT22;62113;45.624;11.700;2022-10-15T17:16:30;21.70;60.90
63013;DHT22;62113;45.624;11.700;2022-10-15T17:18:57;21.70;61.10
63013;DHT22;62113;45.624;11.700;2022-10-15T17:21:25;21.70;61.20
63013;DHT22;62113;45.624;11.700;2022-10-15T17:23:53;21.60;61.20
63013;DHT22;62113;45.624;11.700;2022-10-15T17:26:22;21.60;61.70
63013;DHT22;62113;45.624;11.700;2022-10-15T17:28:49;21.50;61.50
63013;DHT22;62113;45.624;11.700;2022-10-15T17:31:25;21.50;61.60